createdAt,value
2023-02-13T00:01:17.986Z,26.90
2023-02-13T00:03:44.644Z,26.90
2023-02-13T00:06:11.401Z,26.80
2023-02-13T00:08:37.978Z,26.90
2023-02-13T00:11:04.662Z,26.90
2023-02-13T00:13:31.251Z,26.80
2023-02-13T00:15:59.660Z,26.70
2023-02-13T00:18:27.756Z,26.80
2023-02-13T00:21:02.250Z,26.80
2023-02-13T00:23:31.278Z,26.80
2023-02-13T00:25:59.128Z,26.80
2023-02-13T00:28:25.828Z,26.90
2023-02-13T00:30:52.523Z,26.80
2023-02-13T00:33:19.241Z,26.80
2023-02-13T00:35:45.806Z,26.80
2023-02-13T00:38:12.377Z,26.80
2023-02-13T00:40:38.909Z,26.80
2023-02-13T00:43:05.491Z,26.80
2023-02-13T00:45:32.045Z,26.80
2023-02-13T00:47:58.631Z,26.80
2023-02-13T00:50:25.221Z,26.80
2023-02-13T00:52:51.816Z,26.80
2023-02-13T00:55:18.476Z,26.80
2023-02-13T00:57:45.089Z,26.80
2023-02-13T01:00:12.227Z,26.80
2023-02-13T01:02:38.842Z,26.80
2023-02-13T01:05:05.672Z,26.80
2023-02-13T01:07:32.309Z,26.80
2023-02-13T01:09:58.881Z,26.80
2023-02-13T01:12:25.478Z,26.80
2023-02-13T01:14:52.482Z,26.80
2023-02-13T01:17:19.073Z,26.80
2023-02-13T01:19:45.661Z,26.80
2023-02-13T01:22:12.273Z,26.80
2023-02-13T01:24:38.813Z,26.80
2023-02-13T01:27:05.425Z,26.70
2023-02-13T01:29:32.135Z,26.70
2023-02-13T01:31:58.726Z,26.70
2023-02-13T01:34:25.384Z,26.70
2023-02-13T01:36:51.936Z,26.70
2023-02-13T01:39:18.487Z,26.80
2023-02-13T01:41:45.089Z,26.70
2023-02-13T01:44:49.370Z,26.70
2023-02-13T01:47:26.784Z,26.70
2023-02-13T01:50:05.206Z,26.70
2023-02-13T01:52:32.573Z,26.70
2023-02-13T01:54:59.228Z,26.70
2023-02-13T01:57:28.294Z,26.70
2023-02-13T02:00:06.741Z,26.70
2023-02-13T02:02:37.479Z,26.70
2023-02-13T02:05:06.391Z,26.70
2023-02-13T02:07:33.752Z,26.70
2023-02-13T02:10:05.306Z,26.70
2023-02-13T02:12:47.046Z,26.70
2023-02-13T02:15:13.998Z,26.70
2023-02-13T02:17:40.539Z,26.70
2023-02-13T02:20:46.666Z,26.70
2023-02-13T02:23:34.438Z,26.70
2023-02-13T02:26:35.096Z,26.70
2023-02-13T02:29:20.509Z,26.70
2023-02-13T02:31:59.192Z,26.70
2023-02-13T02:34:43.865Z,26.70
2023-02-13T02:37:29.429Z,26.70
2023-02-13T02:40:11.419Z,26.70
2023-02-13T02:43:12.397Z,26.70
2023-02-13T02:45:46.666Z,26.70
2023-02-13T02:48:46.941Z,26.70
2023-02-13T02:51:26.381Z,26.70
2023-02-13T02:54:02.521Z,26.70
2023-02-13T02:56:40.257Z,26.70
2023-02-13T02:59:38.517Z,26.70
2023-02-13T03:02:24.989Z,26.60
2023-02-13T03:05:13.759Z,26.70
2023-02-13T03:07:40.461Z,26.60
2023-02-13T03:10:39.219Z,26.70
2023-02-13T03:13:23.480Z,26.60
2023-02-13T03:16:11.323Z,26.70
2023-02-13T03:19:03.481Z,26.60
2023-02-13T03:22:05.174Z,26.60
2023-02-13T03:25:05.699Z,26.60
2023-02-13T03:28:04.723Z,26.60
2023-02-13T03:30:54.058Z,26.60
2023-02-13T03:33:48.287Z,26.60
2023-02-13T03:37:05.890Z,26.60
2023-02-13T03:39:48.502Z,26.60
2023-02-13T03:42:30.560Z,26.60
2023-02-13T03:45:24.561Z,26.60
2023-02-13T03:47:55.198Z,26.60
2023-02-13T03:50:22.572Z,26.60
2023-02-13T03:53:05.529Z,26.60
2023-02-13T03:55:54.466Z,26.60
2023-02-13T03:58:46.051Z,26.60
2023-02-13T04:01:16.712Z,26.50
2023-02-13T04:03:52.410Z,26.60
2023-02-13T04:06:34.014Z,26.50
2023-02-13T04:09:00.598Z,26.50
2023-02-13T04:11:37.747Z,26.60
2023-02-13T04:14:18.105Z,26.60
2023-02-13T04:16:49.946Z,26.50
2023-02-13T04:19:17.182Z,26.50
2023-02-13T04:21:43.974Z,26.50
2023-02-13T04:24:10.625Z,26.50
2023-02-13T04:26:39.801Z,26.50
2023-02-13T04:29:06.948Z,26.60
2023-02-13T04:31:33.731Z,26.50
2023-02-13T04:34:00.348Z,26.50
2023-02-13T04:36:27.057Z,26.50
2023-02-13T04:38:53.851Z,26.60
2023-02-13T04:41:20.525Z,26.60
2023-02-13T04:43:47.261Z,26.60
2023-02-13T04:46:13.855Z,26.60
2023-02-13T04:48:40.498Z,26.60
2023-02-13T04:51:07.107Z,26.60
2023-02-13T04:53:33.690Z,26.60
2023-02-13T04:56:00.358Z,26.60
2023-02-13T04:58:27.386Z,26.60
2023-02-13T05:00:54.144Z,26.60
2023-02-13T05:03:20.761Z,26.60
2023-02-13T05:05:49.398Z,26.70
2023-02-13T05:08:16.143Z,26.70
2023-02-13T05:10:42.789Z,26.70
2023-02-13T05:13:09.443Z,26.80
2023-02-13T05:15:36.135Z,26.80
2023-02-13T05:18:02.720Z,26.80
2023-02-13T05:20:29.270Z,26.90
2023-02-13T05:23:14.648Z,27.00
2023-02-13T05:25:42.050Z,27.00
2023-02-13T05:28:27.771Z,27.00
2023-02-13T05:30:54.748Z,27.10
2023-02-13T05:33:21.406Z,27.10
2023-02-13T05:35:47.987Z,27.20
2023-02-13T05:38:14.624Z,27.20
2023-02-13T05:40:41.219Z,27.30
2023-02-13T05:43:07.865Z,27.30
2023-02-13T05:45:34.529Z,27.40
2023-02-13T05:48:01.118Z,27.40
2023-02-13T05:50:27.681Z,27.40
2023-02-13T05:52:54.239Z,27.50
2023-02-13T05:55:20.900Z,27.50
2023-02-13T05:57:47.443Z,27.60
2023-02-13T06:00:14.859Z,27.60
2023-02-13T06:02:41.906Z,27.60
2023-02-13T06:05:08.480Z,27.60
2023-02-13T06:07:35.147Z,27.70
2023-02-13T06:10:01.709Z,27.70
2023-02-13T06:12:28.265Z,27.70
2023-02-13T06:14:54.852Z,27.70
2023-02-13T06:17:21.398Z,27.70
2023-02-13T06:19:47.930Z,27.70
2023-02-13T06:22:14.827Z,27.70
2023-02-13T06:24:41.393Z,27.70
2023-02-13T06:27:07.929Z,27.80
2023-02-13T06:29:34.510Z,27.80
2023-02-13T06:32:01.107Z,27.90
2023-02-13T06:34:27.646Z,27.80
2023-02-13T06:36:54.189Z,27.80
2023-02-13T06:39:20.726Z,27.80
2023-02-13T06:41:47.264Z,27.80
2023-02-13T06:44:13.889Z,27.90
2023-02-13T06:46:40.464Z,27.90
2023-02-13T06:49:07.063Z,27.90
2023-02-13T06:51:33.738Z,27.90
2023-02-13T06:54:00.350Z,27.90
2023-02-13T06:56:27.054Z,28.00
2023-02-13T06:58:53.963Z,27.90
2023-02-13T07:01:20.601Z,28.00
2023-02-13T07:03:48.629Z,27.80
2023-02-13T07:06:19.896Z,28.00
2023-02-13T07:08:47.070Z,28.00
2023-02-13T07:11:18.529Z,28.00
2023-02-13T07:13:45.183Z,28.00
2023-02-13T07:16:11.829Z,28.00
2023-02-13T07:18:38.693Z,28.00
2023-02-13T07:21:05.634Z,28.00
2023-02-13T07:23:32.201Z,28.00
2023-02-13T07:26:00.439Z,28.00
2023-02-13T07:28:28.075Z,28.00
2023-02-13T07:30:56.322Z,28.00
2023-02-13T07:33:23.565Z,28.00
2023-02-13T07:35:51.925Z,28.00
2023-02-13T07:38:19.179Z,28.00
2023-02-13T07:40:46.160Z,28.00
2023-02-13T07:43:13.462Z,28.00
2023-02-13T07:45:40.140Z,28.00
2023-02-13T07:48:06.677Z,28.00
2023-02-13T07:50:33.285Z,28.00
2023-02-13T07:53:01.771Z,28.00
2023-02-13T07:55:29.292Z,28.00
2023-02-13T07:57:56.618Z,28.00
2023-02-13T08:00:23.779Z,28.00
2023-02-13T08:02:50.362Z,28.10
2023-02-13T08:05:17.123Z,28.10
2023-02-13T08:07:43.689Z,28.10
2023-02-13T08:10:31.843Z,28.10
2023-02-13T08:12:58.644Z,28.10
2023-02-13T08:15:25.853Z,28.10
2023-02-13T08:17:52.483Z,28.10
2023-02-13T08:20:19.502Z,28.10
2023-02-13T08:22:46.096Z,28.10
2023-02-13T08:25:13.184Z,28.20
2023-02-13T08:27:39.767Z,28.20
2023-02-13T08:30:07.531Z,28.10
2023-02-13T08:32:48.279Z,28.20
2023-02-13T08:35:19.543Z,28.10
2023-02-13T08:37:47.597Z,28.20
2023-02-13T08:40:14.879Z,28.20
2023-02-13T08:42:41.627Z,28.20
2023-02-13T08:45:10.443Z,28.20
2023-02-13T08:47:37.781Z,28.20
2023-02-13T08:50:04.649Z,28.20
2023-02-13T08:52:31.262Z,28.20
2023-02-13T08:54:57.990Z,28.20
2023-02-13T08:57:24.621Z,28.30
2023-02-13T08:59:51.787Z,28.20
2023-02-13T09:02:18.351Z,28.20
2023-02-13T09:04:44.937Z,28.20
2023-02-13T09:07:12.364Z,28.20
2023-02-13T09:09:38.918Z,28.20
2023-02-13T09:12:05.654Z,28.20
2023-02-13T09:14:33.530Z,28.20
2023-02-13T09:17:00.243Z,28.20
2023-02-13T09:19:26.888Z,28.20
2023-02-13T09:21:53.522Z,28.20
2023-02-13T09:24:20.109Z,28.20
2023-02-13T09:26:46.698Z,28.30
2023-02-13T09:29:13.356Z,28.20
2023-02-13T09:31:40.046Z,28.20
2023-02-13T09:34:06.788Z,28.20
2023-02-13T09:36:33.428Z,28.30
2023-02-13T09:39:00.577Z,28.20
2023-02-13T09:41:31.028Z,28.30
2023-02-13T09:44:11.961Z,28.30
2023-02-13T09:46:40.199Z,28.30
2023-02-13T09:49:20.371Z,28.30
2023-02-13T09:51:54.261Z,28.30
2023-02-13T09:54:20.981Z,28.40
2023-02-13T09:56:49.879Z,28.30
2023-02-13T09:59:45.679Z,28.30
2023-02-13T10:02:45.602Z,28.30
2023-02-13T10:05:39.652Z,28.30
2023-02-13T10:08:11.800Z,28.30
2023-02-13T10:10:47.213Z,28.30
2023-02-13T10:13:23.431Z,28.40
2023-02-13T10:16:03.310Z,28.30
2023-02-13T10:18:41.975Z,28.30
2023-02-13T10:21:11.131Z,28.40
2023-02-13T10:23:46.158Z,28.30
2023-02-13T10:26:20.286Z,28.30
2023-02-13T10:29:18.963Z,28.30
2023-02-13T10:31:49.851Z,28.30
2023-02-13T10:34:20.865Z,28.30
2023-02-13T10:36:47.954Z,28.30
2023-02-13T10:39:26.191Z,28.40
2023-02-13T10:41:57.770Z,28.30
2023-02-13T10:44:45.397Z,28.40
2023-02-13T10:47:14.798Z,28.30
2023-02-13T10:50:18.435Z,28.40
2023-02-13T10:53:00.105Z,28.30
2023-02-13T10:55:31.813Z,28.40
2023-02-13T10:58:17.562Z,28.30
2023-02-13T11:01:19.687Z,28.30
2023-02-13T11:03:48.295Z,28.30
2023-02-13T11:06:18.376Z,28.40
2023-02-13T11:08:47.722Z,28.50
2023-02-13T11:11:32.564Z,28.40
2023-02-13T11:14:08.443Z,28.30
2023-02-13T11:16:40.422Z,28.40
2023-02-13T11:19:15.713Z,28.40
2023-02-13T11:21:42.310Z,28.40
2023-02-13T11:24:26.603Z,28.40
2023-02-13T11:27:02.353Z,28.40
2023-02-13T11:29:31.408Z,28.40
2023-02-13T11:32:22.860Z,28.40
2023-02-13T11:34:51.228Z,28.40
2023-02-13T11:37:21.163Z,28.40
2023-02-13T11:39:51.400Z,28.40
2023-02-13T11:42:34.461Z,28.50
2023-02-13T11:45:07.668Z,28.50
2023-02-13T11:47:43.481Z,28.50
2023-02-13T11:50:34.929Z,28.50
2023-02-13T11:53:03.143Z,28.50
2023-02-13T11:55:35.636Z,28.50
2023-02-13T11:58:23.534Z,28.50
2023-02-13T12:00:50.546Z,28.50
2023-02-13T12:03:27.964Z,28.50
2023-02-13T12:06:03.833Z,28.50
2023-02-13T12:08:32.850Z,28.70
2023-02-13T12:11:00.499Z,28.50
2023-02-13T12:13:35.546Z,28.60
2023-02-13T12:16:14.006Z,28.50
2023-02-13T12:18:46.585Z,28.60
2023-02-13T12:21:35.594Z,28.60
2023-02-13T12:24:18.957Z,28.60
2023-02-13T12:26:53.352Z,28.60
2023-02-13T12:29:26.119Z,28.60
2023-02-13T12:32:49.382Z,28.70
2023-02-13T12:35:31.254Z,28.70
2023-02-13T12:38:20.076Z,28.80
2023-02-13T12:40:59.713Z,28.80
2023-02-13T12:43:47.378Z,28.90
2023-02-13T12:46:39.867Z,28.90
2023-02-13T12:49:38.091Z,28.90
2023-02-13T12:52:23.257Z,28.90
2023-02-13T12:55:17.513Z,28.90
2023-02-13T12:58:16.645Z,28.90
2023-02-13T13:01:17.478Z,28.90
2023-02-13T13:04:04.654Z,29.00
2023-02-13T13:06:53.366Z,29.00
2023-02-13T13:09:26.982Z,29.00
2023-02-13T13:12:02.326Z,29.00
2023-02-13T13:14:37.919Z,29.00
2023-02-13T13:17:11.657Z,29.10
2023-02-13T13:20:04.928Z,29.20
2023-02-13T13:22:51.066Z,29.10
2023-02-13T13:25:29.389Z,29.10
2023-02-13T13:28:01.977Z,29.10
2023-02-13T13:30:35.333Z,29.30
2023-02-13T13:33:24.495Z,29.20
2023-02-13T13:36:19.518Z,29.20
2023-02-13T13:39:15.267Z,29.20
2023-02-13T13:42:00.889Z,29.20
2023-02-13T13:44:48.825Z,29.20
2023-02-13T13:47:28.268Z,29.20
2023-02-13T13:49:57.148Z,29.20
2023-02-13T13:52:32.347Z,29.30
2023-02-13T13:55:00.636Z,29.30
2023-02-13T13:57:33.053Z,29.30
2023-02-13T14:00:24.584Z,29.30
2023-02-13T14:03:20.295Z,29.30
2023-02-13T14:06:17.304Z,29.30
2023-02-13T14:08:44.381Z,29.40
2023-02-13T14:11:40.445Z,29.40
2023-02-13T14:14:28.976Z,29.40
2023-02-13T14:16:58.128Z,29.50
2023-02-13T14:19:37.666Z,29.50
2023-02-13T14:22:19.684Z,29.60
2023-02-13T14:25:12.539Z,29.60
2023-02-13T14:27:39.745Z,29.60
2023-02-13T14:30:28.347Z,29.70
2023-02-13T14:32:55.706Z,29.70
2023-02-13T14:35:29.950Z,29.60
2023-02-13T14:37:59.256Z,29.60
2023-02-13T14:40:44.303Z,29.60
2023-02-13T14:43:31.218Z,29.60
2023-02-13T14:46:13.869Z,29.60
2023-02-13T14:48:48.057Z,29.60
2023-02-13T14:51:34.622Z,29.50
2023-02-13T14:54:15.708Z,29.50
2023-02-13T14:56:46.266Z,29.50
2023-02-13T14:59:20.273Z,29.50
2023-02-13T15:01:53.115Z,29.40
2023-02-13T15:04:40.979Z,29.40
2023-02-13T15:07:15.680Z,29.40
2023-02-13T15:09:48.519Z,29.30
2023-02-13T15:12:31.868Z,29.30
2023-02-13T15:15:01.246Z,29.30
2023-02-13T15:17:32.800Z,29.30
2023-02-13T15:20:18.482Z,29.30
2023-02-13T15:22:48.449Z,29.20
2023-02-13T15:25:39.027Z,29.20
2023-02-13T15:28:07.861Z,29.20
2023-02-13T15:30:37.052Z,29.30
2023-02-13T15:33:22.485Z,29.20
2023-02-13T15:36:19.585Z,29.20
2023-02-13T15:38:46.226Z,29.20
2023-02-13T15:41:27.941Z,29.20
2023-02-13T15:43:58.318Z,29.10
2023-02-13T15:46:29.732Z,29.10
2023-02-13T15:49:00.110Z,29.10
2023-02-13T15:51:30.869Z,29.10
2023-02-13T15:54:03.734Z,29.10
2023-02-13T15:56:31.056Z,29.10
2023-02-13T15:58:59.834Z,29.00
2023-02-13T16:01:26.945Z,29.00
2023-02-13T16:04:05.930Z,29.00
2023-02-13T16:06:34.072Z,29.00
2023-02-13T16:09:01.836Z,28.90
2023-02-13T16:11:33.410Z,28.90
2023-02-13T16:14:08.473Z,28.90
2023-02-13T16:16:44.219Z,28.90
2023-02-13T16:19:26.221Z,28.80
2023-02-13T16:21:54.500Z,28.80
2023-02-13T16:24:21.389Z,28.90
2023-02-13T16:26:48.974Z,28.80
2023-02-13T16:29:20.447Z,28.70
2023-02-13T16:31:49.063Z,28.70
2023-02-13T16:34:27.626Z,28.70
2023-02-13T16:36:55.158Z,28.70
2023-02-13T16:39:28.589Z,28.70
2023-02-13T16:41:55.746Z,28.70
2023-02-13T16:44:23.334Z,28.60
2023-02-13T16:46:58.446Z,28.60
2023-02-13T16:49:27.613Z,28.60
2023-02-13T16:52:21.988Z,28.60
2023-02-13T16:54:59.140Z,28.50
2023-02-13T16:57:30.678Z,28.50
2023-02-13T17:00:19.358Z,28.50
2023-02-13T17:02:47.428Z,28.50
2023-02-13T17:05:26.255Z,28.50
2023-02-13T17:07:57.617Z,28.50
2023-02-13T17:10:27.039Z,28.50
2023-02-13T17:12:55.473Z,28.40
2023-02-13T17:15:25.050Z,28.40
2023-02-13T17:17:52.084Z,28.40
2023-02-13T17:20:22.238Z,28.40
2023-02-13T17:22:51.079Z,28.40
2023-02-13T17:25:34.245Z,28.40
2023-02-13T17:28:22.828Z,28.40
2023-02-13T17:30:51.605Z,28.40
2023-02-13T17:33:22.900Z,28.40
2023-02-13T17:35:49.770Z,28.40
2023-02-13T17:38:16.716Z,28.40
2023-02-13T17:40:44.551Z,28.40
2023-02-13T17:43:12.542Z,28.40
2023-02-13T17:45:39.692Z,28.40
2023-02-13T17:48:06.484Z,28.40
2023-02-13T17:50:34.941Z,28.40
2023-02-13T17:53:08.982Z,28.40
2023-02-13T17:55:35.747Z,28.30
2023-02-13T17:58:02.904Z,28.30
2023-02-13T18:00:32.828Z,28.30
2023-02-13T18:03:00.803Z,28.30
2023-02-13T18:05:28.034Z,28.30
2023-02-13T18:07:54.717Z,28.30
2023-02-13T18:10:27.381Z,28.30
2023-02-13T18:12:56.572Z,28.30
2023-02-13T18:15:24.450Z,28.30
2023-02-13T18:17:51.166Z,28.30
2023-02-13T18:20:20.715Z,28.40
2023-02-13T18:22:50.369Z,28.30
2023-02-13T18:25:17.799Z,28.30
2023-02-13T18:27:44.609Z,28.30
2023-02-13T18:30:13.876Z,28.40
2023-02-13T18:32:40.547Z,28.30
2023-02-13T18:35:08.167Z,28.30
2023-02-13T18:37:35.377Z,28.40
2023-02-13T18:40:01.977Z,28.30
2023-02-13T18:42:28.951Z,28.30
2023-02-13T18:44:55.501Z,28.30
2023-02-13T18:47:22.149Z,28.30
2023-02-13T18:49:48.739Z,28.40
2023-02-13T18:52:15.443Z,28.30
2023-02-13T18:54:42.022Z,28.30
2023-02-13T18:57:08.746Z,28.30
2023-02-13T18:59:35.342Z,28.30
2023-02-13T19:02:04.103Z,28.30
2023-02-13T19:04:31.240Z,28.20
2023-02-13T19:06:57.820Z,28.30
2023-02-13T19:09:24.391Z,28.20
2023-02-13T19:11:51.556Z,28.20
2023-02-13T19:14:18.217Z,28.20
2023-02-13T19:16:44.873Z,28.20
2023-02-13T19:19:11.588Z,28.20
2023-02-13T19:21:38.949Z,28.20
2023-02-13T19:24:08.659Z,28.20
2023-02-13T19:26:35.815Z,28.20
2023-02-13T19:29:03.022Z,28.20
2023-02-13T19:31:31.342Z,28.20
2023-02-13T19:33:59.366Z,28.20
2023-02-13T19:36:26.911Z,28.10
2023-02-13T19:38:55.694Z,28.20
2023-02-13T19:41:23.299Z,28.10
2023-02-13T19:43:51.119Z,28.10
2023-02-13T19:46:20.275Z,28.10
2023-02-13T19:48:47.235Z,28.00
2023-02-13T19:51:24.021Z,28.00
2023-02-13T19:53:57.200Z,28.10
2023-02-13T19:56:24.461Z,28.00
2023-02-13T19:58:51.110Z,28.00
2023-02-13T20:01:22.745Z,28.00
2023-02-13T20:03:49.667Z,28.00
2023-02-13T20:06:22.526Z,27.90
2023-02-13T20:08:49.757Z,27.90
2023-02-13T20:11:18.798Z,27.90
2023-02-13T20:13:45.460Z,27.90
2023-02-13T20:16:14.961Z,27.90
2023-02-13T20:18:41.974Z,27.90
2023-02-13T20:21:14.289Z,27.90
2023-02-13T20:23:41.968Z,27.90
2023-02-13T20:26:14.188Z,27.90
2023-02-13T20:28:42.100Z,27.80
2023-02-13T20:31:20.524Z,27.80
2023-02-13T20:33:47.984Z,27.80
2023-02-13T20:36:26.533Z,27.80
2023-02-13T20:38:55.109Z,27.80
2023-02-13T20:41:24.097Z,27.80
2023-02-13T20:43:51.335Z,27.80
2023-02-13T20:46:18.884Z,27.80
2023-02-13T20:48:47.404Z,27.70
2023-02-13T20:51:15.570Z,27.70
2023-02-13T20:53:43.603Z,27.70
2023-02-13T20:56:13.214Z,27.70
2023-02-13T20:58:41.256Z,27.70
2023-02-13T21:01:35.462Z,27.70
2023-02-13T21:04:02.722Z,27.70
2023-02-13T21:06:32.471Z,27.70
2023-02-13T21:08:59.585Z,27.70
2023-02-13T21:11:28.988Z,27.70
2023-02-13T21:13:57.166Z,27.70
2023-02-13T21:16:26.622Z,27.70
2023-02-13T21:18:56.064Z,27.70
2023-02-13T21:21:24.112Z,27.70
2023-02-13T21:23:55.695Z,27.70
2023-02-13T21:26:23.312Z,27.70
2023-02-13T21:28:51.314Z,27.70
2023-02-13T21:31:29.143Z,27.60
2023-02-13T21:34:07.437Z,27.60
2023-02-13T21:36:35.504Z,27.60
2023-02-13T21:39:02.117Z,27.60
2023-02-13T21:41:28.780Z,27.60
2023-02-13T21:43:55.486Z,27.60
2023-02-13T21:46:28.169Z,27.60
2023-02-13T21:48:57.167Z,27.60
2023-02-13T21:51:25.252Z,27.60
2023-02-13T21:53:53.200Z,27.60
2023-02-13T21:56:22.977Z,27.60
2023-02-13T21:58:50.001Z,27.60
2023-02-13T22:01:27.212Z,27.60
2023-02-13T22:04:01.021Z,27.60
2023-02-13T22:06:29.430Z,27.60
2023-02-13T22:09:07.828Z,27.60
2023-02-13T22:11:35.190Z,27.50
2023-02-13T22:14:03.447Z,27.60
2023-02-13T22:16:32.546Z,27.50
2023-02-13T22:18:59.892Z,27.50
2023-02-13T22:21:28.869Z,27.50
2023-02-13T22:23:55.678Z,27.50
2023-02-13T22:26:28.403Z,27.50
2023-02-13T22:28:58.642Z,27.40
2023-02-13T22:31:26.097Z,27.50
2023-02-13T22:34:03.298Z,27.40
2023-02-13T22:36:34.873Z,27.50
2023-02-13T22:39:01.525Z,27.40
2023-02-13T22:41:28.480Z,27.40
2023-02-13T22:43:55.709Z,27.40
2023-02-13T22:46:31.289Z,27.30
2023-02-13T22:48:58.807Z,27.30
2023-02-13T22:51:28.348Z,27.30
2023-02-13T22:53:56.766Z,27.20
2023-02-13T22:56:25.124Z,27.30
2023-02-13T22:58:52.155Z,27.20
2023-02-13T23:01:20.459Z,27.10
2023-02-13T23:03:47.381Z,27.30
2023-02-13T23:06:15.295Z,27.10
2023-02-13T23:08:42.679Z,27.00
2023-02-13T23:11:36.003Z,27.00
2023-02-13T23:14:04.122Z,27.00
2023-02-13T23:16:54.014Z,27.00
2023-02-13T23:19:21.341Z,27.00
2023-02-13T23:21:47.995Z,26.90
2023-02-13T23:24:14.663Z,26.90
2023-02-13T23:26:41.495Z,26.90
2023-02-13T23:29:08.059Z,26.90
2023-02-13T23:31:34.680Z,26.80
2023-02-13T23:34:01.402Z,26.80
2023-02-13T23:36:28.574Z,26.80
2023-02-13T23:38:55.176Z,26.80
2023-02-13T23:41:21.840Z,26.70
2023-02-13T23:43:48.531Z,26.80
2023-02-13T23:46:15.175Z,26.70
2023-02-13T23:48:42.237Z,26.70
2023-02-13T23:51:08.860Z,26.70
2023-02-13T23:53:36.047Z,26.70
2023-02-13T23:56:03.593Z,26.60
2023-02-13T23:58:30.305Z,26.70
